createdAt,value
2017-11-08T00:00:13.309Z,93.51
2017-11-08T00:01:23.815Z,93.41
2017-11-08T00:02:34.019Z,93.32
2017-11-08T00:03:44.488Z,93.23
2017-11-08T00:04:54.967Z,93.6
2017-11-08T00:06:05.423Z,93.89
2017-11-08T00:07:15.932Z,93.7
2017-11-08T00:08:26.415Z,93.79
2017-11-08T00:09:37.028Z,93.41
2017-11-08T00:10:47.169Z,93.6
2017-11-08T00:11:57.749Z,93.41
2017-11-08T00:13:08.210Z,93.89
2017-11-08T00:14:18.753Z,93.6
2017-11-08T00:15:29.187Z,93.98
2017-11-08T00:16:39.324Z,93.89
2017-11-08T00:17:49.810Z,93.98
2017-11-08T00:19:00.269Z,93.98
2017-11-08T00:20:10.953Z,93.6
2017-11-08T00:21:22.364Z,94.08
2017-11-08T00:22:32.389Z,94.37
2017-11-08T00:23:42.823Z,94.46
2017-11-08T00:24:53.299Z,94.18
2017-11-08T00:26:03.783Z,94.37
2017-11-08T00:27:14.256Z,94.27
2017-11-08T00:28:24.712Z,93.98
2017-11-08T00:29:35.195Z,93.98
2017-11-08T00:30:45.661Z,94.18
2017-11-08T00:31:56.112Z,94.18
2017-11-08T00:33:06.277Z,93.98
2017-11-08T00:34:16.775Z,94.65
2017-11-08T00:35:27.230Z,94.65
2017-11-08T00:36:37.240Z,94.84
2017-11-08T00:37:47.683Z,94.84
2017-11-08T00:38:58.123Z,94.37
2017-11-08T00:40:08.271Z,94.37
2017-11-08T00:41:18.743Z,93.89
2017-11-08T00:42:29.202Z,94.84
2017-11-08T00:43:39.640Z,94.65
2017-11-08T00:44:50.107Z,94.84
2017-11-08T00:46:00.651Z,94.56
2017-11-08T00:47:11.134Z,94.65
2017-11-08T00:48:21.648Z,94.18
2017-11-08T00:49:31.790Z,94.46
2017-11-08T00:50:42.231Z,94.46
2017-11-08T00:51:52.436Z,94.46
2017-11-08T00:53:03.039Z,94.46
2017-11-08T00:54:13.588Z,94.18
2017-11-08T00:55:24.075Z,94.37
2017-11-08T00:56:34.604Z,94.37
2017-11-08T00:57:44.793Z,94.56
2017-11-08T00:58:55.255Z,94.46
2017-11-08T01:00:05.431Z,94.65
2017-11-08T01:01:15.901Z,94.56
2017-11-08T01:02:26.348Z,94.46
2017-11-08T01:03:36.862Z,94.46
2017-11-08T01:04:47.087Z,94.37
2017-11-08T01:05:57.524Z,94.56
2017-11-08T01:07:07.988Z,94.46
2017-11-08T01:08:18.454Z,94.56
2017-11-08T01:09:28.594Z,94.74
2017-11-08T01:10:38.767Z,94.65
2017-11-08T01:11:49.263Z,94.74
2017-11-08T01:12:59.811Z,94.46
2017-11-08T01:14:10.273Z,94.65
2017-11-08T01:15:20.710Z,94.46
2017-11-08T01:16:31.230Z,94.65
2017-11-08T01:17:41.355Z,94.18
2017-11-08T01:18:51.829Z,94.74
2017-11-08T01:20:02.290Z,94.37
2017-11-08T01:21:12.400Z,94.65
2017-11-08T01:22:22.210Z,94.56
2017-11-08T01:23:32.650Z,94.93
2017-11-08T01:24:43.082Z,94.84
2017-11-08T01:25:53.532Z,94.84
2017-11-08T01:27:04.000Z,95.03
2017-11-08T01:28:14.483Z,95.03
2017-11-08T01:29:24.960Z,94.74
2017-11-08T01:30:35.422Z,94.74
2017-11-08T01:31:45.867Z,94.84
2017-11-08T01:32:56.421Z,94.27
2017-11-08T01:34:06.895Z,94.56
2017-11-08T01:35:17.351Z,94.08
2017-11-08T01:36:27.831Z,94.18
2017-11-08T01:37:37.941Z,94.27
2017-11-08T01:38:48.077Z,94.27
2017-11-08T01:39:58.730Z,94.18
2017-11-08T01:41:09.189Z,94.18
2017-11-08T01:42:19.756Z,94.65
2017-11-08T01:43:30.274Z,94.56
2017-11-08T01:44:40.989Z,94.56
2017-11-08T01:45:51.123Z,94.84
2017-11-08T01:47:01.572Z,94.65
2017-11-08T01:48:11.718Z,95.03
2017-11-08T01:49:22.411Z,94.84
2017-11-08T01:50:32.844Z,93.98
2017-11-08T01:51:42.988Z,94.84
2017-11-08T01:52:53.443Z,94.84
2017-11-08T01:54:03.607Z,94.46
2017-11-08T02:09:47.319Z,94.84
2017-11-08T02:10:57.687Z,94.27
2017-11-08T02:12:08.167Z,94.27
2017-11-08T02:13:18.408Z,94.27
2017-11-08T02:14:28.841Z,93.98
2017-11-08T02:15:39.274Z,94.46
2017-11-08T02:16:49.740Z,94.27
2017-11-08T02:18:00.288Z,94.56
2017-11-08T02:19:11.014Z,93.98
2017-11-08T02:20:21.455Z,94.37
2017-11-08T02:21:31.921Z,94.37
2017-11-08T02:22:43.335Z,94.32
2017-11-08T02:23:53.819Z,94.27
2017-11-08T02:25:04.272Z,94.22
2017-11-08T02:26:14.695Z,94.22
2017-11-08T02:27:25.145Z,94.22
2017-11-08T02:28:35.613Z,94.08
2017-11-08T02:29:46.089Z,93.46
2017-11-08T02:30:56.565Z,93.65
2017-11-08T02:32:07.021Z,94.22
2017-11-08T02:33:17.447Z,93.98
2017-11-08T02:34:27.765Z,93.79
2017-11-08T02:35:38.356Z,93.7
2017-11-08T02:36:49.007Z,93.55
2017-11-08T02:37:59.522Z,93.6
2017-11-08T02:39:09.978Z,93.75
2017-11-08T02:40:20.643Z,94.08
2017-11-08T02:41:30.892Z,93.6
2017-11-08T02:42:41.440Z,93.7
2017-11-08T02:43:51.883Z,93.6
2017-11-08T02:45:02.369Z,93.41
2017-11-08T02:46:12.805Z,93.55
2017-11-08T02:47:23.265Z,93.79
2017-11-08T02:48:33.804Z,93.89
2017-11-08T02:49:44.004Z,93.6
2017-11-08T02:50:54.438Z,93.32
2017-11-08T02:52:04.877Z,93.41
2017-11-08T02:53:15.349Z,93.6
2017-11-08T02:54:25.925Z,93.6
2017-11-08T02:55:36.356Z,93.7
2017-11-08T02:56:46.985Z,93.79
2017-11-08T02:57:57.439Z,93.7
2017-11-08T02:59:07.955Z,93.6
2017-11-08T03:00:18.389Z,93.6
2017-11-08T03:01:28.859Z,93.89
2017-11-08T03:02:38.637Z,93.89
2017-11-08T03:03:49.089Z,93.7
2017-11-08T03:04:59.586Z,93.79
2017-11-08T03:06:10.061Z,93.79
2017-11-08T03:07:19.843Z,93.7
2017-11-08T03:08:30.339Z,93.6
2017-11-08T03:09:40.791Z,93.7
2017-11-08T03:10:51.230Z,93.6
2017-11-08T03:12:01.712Z,93.79
2017-11-08T03:13:12.050Z,93.7
2017-11-08T03:14:22.156Z,93.41
2017-11-08T03:15:32.687Z,93.32
2017-11-08T03:16:43.136Z,93.7
2017-11-08T03:17:53.608Z,93.7
2017-11-08T03:19:04.236Z,93.6
2017-11-08T03:20:14.674Z,93.7
2017-11-08T03:21:25.122Z,93.7
2017-11-08T03:22:35.548Z,93.7
2017-11-08T03:23:46.041Z,93.6
2017-11-08T03:24:56.509Z,93.6
2017-11-08T03:26:06.948Z,93.6
2017-11-08T03:27:17.378Z,93.7
2017-11-08T03:28:27.879Z,93.51
2017-11-08T03:29:38.331Z,93.6
2017-11-08T03:30:48.782Z,94.08
2017-11-08T03:31:59.260Z,93.6
2017-11-08T03:33:09.700Z,93.51
2017-11-08T03:34:20.159Z,93.6
2017-11-08T03:35:30.597Z,93.13
2017-11-08T03:36:41.036Z,93.13
2017-11-08T03:37:51.584Z,93.13
2017-11-08T03:39:02.105Z,93.41
2017-11-08T03:40:12.535Z,93.23
2017-11-08T03:41:22.993Z,93.23
2017-11-08T03:42:33.560Z,93.13
2017-11-08T03:43:44.016Z,93.32
2017-11-08T03:44:54.475Z,93.51
2017-11-08T03:46:04.606Z,93.32
2017-11-08T03:47:15.046Z,93.89
2017-11-08T03:48:25.550Z,93.13
2017-11-08T03:49:36.007Z,93.13
2017-11-08T03:50:46.570Z,93.46
2017-11-08T03:51:56.679Z,92.94
2017-11-08T03:53:07.117Z,93.27
2017-11-08T03:54:17.673Z,93.37
2017-11-08T03:55:28.210Z,93.46
2017-11-08T03:56:38.661Z,93.37
2017-11-08T03:57:49.146Z,93.55
2017-11-08T03:58:59.790Z,93.46
2017-11-08T04:00:10.253Z,93.65
2017-11-08T04:01:20.685Z,93.32
2017-11-08T04:02:30.809Z,93.6
2017-11-08T04:03:41.361Z,93.27
2017-11-08T04:04:51.504Z,93.04
2017-11-08T04:06:02.148Z,92.75
2017-11-08T04:07:12.186Z,92.6
2017-11-08T04:08:22.654Z,92.99
2017-11-08T04:09:33.094Z,92.6
2017-11-08T04:10:43.575Z,92.7
2017-11-08T04:11:53.683Z,92.7
2017-11-08T04:13:04.237Z,92.6
2017-11-08T04:14:14.672Z,92.56
2017-11-08T04:15:25.131Z,92.79
2017-11-08T04:16:35.271Z,92.7
2017-11-08T04:17:45.708Z,92.7
2017-11-08T04:18:56.248Z,92.89
2017-11-08T04:20:06.717Z,92.7
2017-11-08T04:21:17.212Z,92.84
2017-11-08T04:22:27.005Z,92.89
2017-11-08T04:23:37.136Z,92.89
2017-11-08T04:24:47.565Z,92.89
2017-11-08T04:25:58.065Z,92.99
2017-11-08T04:27:08.412Z,92.89
2017-11-08T04:28:18.901Z,92.7
2017-11-08T04:29:29.342Z,92.79
2017-11-08T04:30:39.835Z,92.6
2017-11-08T04:31:49.539Z,92.51
2017-11-08T04:32:59.998Z,92.79
2017-11-08T04:34:10.651Z,92.32
2017-11-08T04:35:20.753Z,92.32
2017-11-08T04:36:31.211Z,92.41
2017-11-08T04:37:41.663Z,92.32
2017-11-08T04:38:52.238Z,92.13
2017-11-08T04:40:02.765Z,92.41
2017-11-08T04:41:13.344Z,92.6
2017-11-08T04:42:23.805Z,92.22
2017-11-08T04:43:34.264Z,92.51
2017-11-08T04:44:44.695Z,92.13
2017-11-08T04:45:55.184Z,92.03
2017-11-08T04:47:05.641Z,92.22
2017-11-08T04:48:16.094Z,92.22
2017-11-08T04:49:26.541Z,92.13
2017-11-08T04:50:37.090Z,92.13
2017-11-08T04:51:47.565Z,92.32
2017-11-08T04:52:58.017Z,91.75
2017-11-08T04:54:08.172Z,91.84
2017-11-08T04:55:18.611Z,91.84
2017-11-08T04:56:29.092Z,91.94
2017-11-08T04:57:39.546Z,92.03
2017-11-08T04:58:50.035Z,91.75
2017-11-08T05:00:00.489Z,91.84
2017-11-08T05:01:10.967Z,91.65
2017-11-08T05:02:21.414Z,91.84
2017-11-08T05:03:31.535Z,91.84
2017-11-08T05:04:42.071Z,91.65
2017-11-08T05:05:52.725Z,91.84
2017-11-08T05:07:03.179Z,91.94
2017-11-08T05:08:13.654Z,91.65
2017-11-08T05:09:24.088Z,92.03
2017-11-08T05:10:34.543Z,91.56
2017-11-08T05:11:44.992Z,91.84
2017-11-08T05:12:55.425Z,91.94
2017-11-08T05:14:05.733Z,91.94
2017-11-08T05:15:16.213Z,92.03
2017-11-08T05:16:26.341Z,91.56
2017-11-08T05:17:36.776Z,91.56
2017-11-08T05:18:47.312Z,91.84
2017-11-08T05:19:57.243Z,91.84
2017-11-08T05:21:07.732Z,91.65
2017-11-08T05:22:18.326Z,92.03
2017-11-08T05:23:28.467Z,91.94
2017-11-08T05:24:38.949Z,91.27
2017-11-08T05:25:49.443Z,91.27
2017-11-08T05:26:59.562Z,91.46
2017-11-08T05:28:09.680Z,91.08
2017-11-08T05:29:19.833Z,91.27
2017-11-08T05:30:30.327Z,91.17
2017-11-08T05:31:40.759Z,91.37
2017-11-08T05:32:51.217Z,91.17
2017-11-08T05:34:01.354Z,90.99
2017-11-08T05:35:11.829Z,91.27
2017-11-08T05:36:22.281Z,91.46
2017-11-08T05:37:32.777Z,91.46
2017-11-08T05:38:43.223Z,91.46
2017-11-08T05:39:53.678Z,91.46
2017-11-08T05:41:04.128Z,91.56
2017-11-08T05:42:14.701Z,91.46
2017-11-08T05:43:25.125Z,91.46
2017-11-08T05:44:35.579Z,90.7
2017-11-08T05:45:46.032Z,90.89
2017-11-08T05:46:55.395Z,90.99
2017-11-08T05:48:06.471Z,90.61
2017-11-08T05:49:16.983Z,91.17
2017-11-08T05:50:27.462Z,90.8
2017-11-08T05:51:37.935Z,90.84
2017-11-08T05:52:48.038Z,91.13
2017-11-08T05:53:58.494Z,90.94
2017-11-08T05:55:09.071Z,90.94
2017-11-08T05:56:19.734Z,91.08
2017-11-08T05:57:30.177Z,90.7
2017-11-08T05:58:40.631Z,90.84
2017-11-08T05:59:51.065Z,91.32
2017-11-08T06:01:01.506Z,90.75
2017-11-08T06:02:11.990Z,90.75
2017-11-08T06:03:22.485Z,91.42
2017-11-08T06:04:32.930Z,91.08
2017-11-08T06:05:43.429Z,90.99
2017-11-08T06:06:53.544Z,91.03
2017-11-08T06:08:04.004Z,91.17
2017-11-08T06:09:14.453Z,90.66
2017-11-08T06:10:24.909Z,90.99
2017-11-08T06:11:35.370Z,90.75
2017-11-08T06:12:45.837Z,90.89
2017-11-08T06:13:56.268Z,90.75
2017-11-08T06:15:06.716Z,90.84
2017-11-08T06:16:17.142Z,90.66
2017-11-08T06:17:27.575Z,90.7
2017-11-08T06:18:37.619Z,90.7
2017-11-08T06:19:48.062Z,90.89
2017-11-08T06:20:58.496Z,90.7
2017-11-08T06:22:08.955Z,91.08
2017-11-08T06:23:19.415Z,90.99
2017-11-08T06:24:29.565Z,90.7
2017-11-08T06:25:39.686Z,90.7
2017-11-08T06:26:49.910Z,90.7
2017-11-08T06:28:00.450Z,90.7
2017-11-08T06:29:10.894Z,90.61
2017-11-08T06:30:21.316Z,90.61
2017-11-08T06:31:31.783Z,90.89
2017-11-08T06:32:42.338Z,90.99
2017-11-08T06:33:52.803Z,90.99
2017-11-08T06:35:03.365Z,90.22
2017-11-08T06:36:13.795Z,90.61
2017-11-08T06:37:24.273Z,90.22
2017-11-08T06:38:34.712Z,90.51
2017-11-08T06:39:44.847Z,90.42
2017-11-08T06:40:55.283Z,90.61
2017-11-08T06:42:05.386Z,90.61
2017-11-08T06:43:15.504Z,90.51
2017-11-08T06:44:25.952Z,90.03
2017-11-08T06:45:35.768Z,90.32
2017-11-08T06:46:46.240Z,90.32
2017-11-08T06:47:56.893Z,90.13
2017-11-08T06:49:07.557Z,90.13
2017-11-08T06:50:17.983Z,90.22
2017-11-08T06:51:28.537Z,90.51
2017-11-08T06:52:38.979Z,90.51
2017-11-08T06:53:49.429Z,89.94
2017-11-08T06:54:59.907Z,89.94
2017-11-08T06:56:10.052Z,89.75
2017-11-08T06:57:20.588Z,90.32
2017-11-08T06:58:30.699Z,90.32
2017-11-08T06:59:41.132Z,90.32
2017-11-08T07:00:51.616Z,90.22
2017-11-08T07:02:02.072Z,90.32
2017-11-08T07:03:12.545Z,90.32
2017-11-08T07:04:23.007Z,90.32
2017-11-08T07:05:33.706Z,90.32
2017-11-08T07:06:44.288Z,90.13
2017-11-08T07:07:54.827Z,89.75
2017-11-08T07:09:04.958Z,89.94
2017-11-08T07:10:15.385Z,90.32
2017-11-08T07:11:25.817Z,90.13
2017-11-08T07:12:36.350Z,89.94
2017-11-08T07:13:46.835Z,90.03
2017-11-08T07:14:56.982Z,89.89
2017-11-08T07:16:07.494Z,90.56
2017-11-08T07:17:17.954Z,90.32
2017-11-08T07:18:28.394Z,90.08
2017-11-08T07:19:38.839Z,90.51
2017-11-08T07:20:49.317Z,90.51
2017-11-08T07:21:59.792Z,90.42
2017-11-08T07:23:09.904Z,89.89
2017-11-08T07:24:20.341Z,90.51
2017-11-08T07:25:30.813Z,90.13
2017-11-08T07:26:41.265Z,89.94
2017-11-08T07:27:51.733Z,89.94
2017-11-08T07:29:01.910Z,90.13
2017-11-08T07:30:12.350Z,90.22
2017-11-08T07:31:22.816Z,89.75
2017-11-08T07:32:32.989Z,90.03
2017-11-08T07:33:43.438Z,89.94
2017-11-08T07:34:53.492Z,89.56
2017-11-08T07:36:03.921Z,89.47
2017-11-08T07:37:14.467Z,89.56
2017-11-08T07:38:24.693Z,89.47
2017-11-08T07:39:34.883Z,89.27
2017-11-08T07:40:45.352Z,88.79
2017-11-08T07:41:55.828Z,88.99
2017-11-08T07:43:06.275Z,89.27
2017-11-08T07:44:16.757Z,88.89
2017-11-08T07:45:26.898Z,88.89
2017-11-08T07:46:37.042Z,89.04
2017-11-08T07:47:47.558Z,89.14
2017-11-08T07:48:57.930Z,89.08
2017-11-08T07:50:08.066Z,88.85
2017-11-08T07:51:18.547Z,88.79
2017-11-08T07:52:28.423Z,88.46
2017-11-08T07:53:38.878Z,88.66
2017-11-08T07:54:49.308Z,88.18
2017-11-08T07:55:59.752Z,88.46
2017-11-08T07:57:09.792Z,88.46
2017-11-08T07:58:20.227Z,88.37
2017-11-08T07:59:30.692Z,88.6
2017-11-08T08:00:41.162Z,88.79
2017-11-08T08:01:51.602Z,89.18
2017-11-08T08:03:02.094Z,88.6
2017-11-08T08:04:12.660Z,88.7
2017-11-08T08:05:23.210Z,88.42
2017-11-08T08:06:33.700Z,88.51
2017-11-08T08:07:44.199Z,88.04
2017-11-08T08:08:54.313Z,88.32
2017-11-08T08:10:04.760Z,88.09
2017-11-08T08:11:15.334Z,88.04
2017-11-08T08:12:25.765Z,87.9
2017-11-08T08:13:36.448Z,87.99
2017-11-08T08:14:46.933Z,87.94
2017-11-08T08:15:57.475Z,88.04
2017-11-08T08:17:07.577Z,87.94
2017-11-08T08:18:19.018Z,87.94
2017-11-08T08:19:29.129Z,87.56
2017-11-08T08:20:39.340Z,87.46
2017-11-08T08:21:49.347Z,87.56
2017-11-08T08:22:59.788Z,87.61
2017-11-08T08:24:10.219Z,87.18
2017-11-08T08:25:20.695Z,87.08
2017-11-08T08:26:32.174Z,87.23
2017-11-08T08:27:42.627Z,87.23
2017-11-08T08:28:53.084Z,86.94
2017-11-08T08:30:03.571Z,87.23
2017-11-08T08:31:14.041Z,87.23
2017-11-08T08:32:24.720Z,87.23
2017-11-08T08:33:34.881Z,87.04
2017-11-08T08:34:45.315Z,87.52
2017-11-08T08:35:55.424Z,87.13
2017-11-08T08:37:05.894Z,87.32
2017-11-08T08:38:16.237Z,87.13
2017-11-08T08:39:26.396Z,86.94
2017-11-08T08:40:36.823Z,86.94
2017-11-08T08:41:47.320Z,87.04
2017-11-08T08:42:57.824Z,86.85
2017-11-08T08:44:08.317Z,87.04
2017-11-08T08:45:18.884Z,86.76
2017-11-08T08:46:29.343Z,87.04
2017-11-08T08:47:39.452Z,86.85
2017-11-08T08:48:49.895Z,87.13
2017-11-08T08:50:01.439Z,86.13
2017-11-08T08:51:11.874Z,86.42
2017-11-08T08:52:22.332Z,86.28
2017-11-08T08:53:32.460Z,86.04
2017-11-08T08:54:42.906Z,86.7
2017-11-08T08:55:53.461Z,86.7
2017-11-08T08:57:03.917Z,86.13
2017-11-08T08:58:14.031Z,86.04
2017-11-08T08:59:24.584Z,86.51
2017-11-08T09:00:35.058Z,86.22
2017-11-08T09:01:45.588Z,86.04
2017-11-08T09:02:56.024Z,86.32
2017-11-08T09:04:06.548Z,85.56
2017-11-08T09:05:16.998Z,85.37
2017-11-08T09:06:27.126Z,85.75
2017-11-08T09:07:37.585Z,85.75
2017-11-08T09:08:48.025Z,85.66
2017-11-08T09:09:58.514Z,85.28
2017-11-08T09:11:08.973Z,85.18
2017-11-08T09:12:19.819Z,85.18
2017-11-08T09:13:30.489Z,84.61
2017-11-08T09:14:41.041Z,84.61
2017-11-08T09:15:51.485Z,84.56
2017-11-08T09:17:01.957Z,84.42
2017-11-08T09:18:12.417Z,83.7
2017-11-08T09:19:23.076Z,83.98
2017-11-08T09:20:33.413Z,83.98
2017-11-08T09:21:43.854Z,83.8
2017-11-08T09:22:54.329Z,83.8
2017-11-08T09:24:04.805Z,83.03
2017-11-08T09:25:15.362Z,83.07
2017-11-08T09:26:25.801Z,83.26
2017-11-08T09:27:36.315Z,83.07
2017-11-08T09:28:46.782Z,82.41
2017-11-08T09:29:57.142Z,82.6
2017-11-08T09:31:07.593Z,82.12
2017-11-08T09:32:17.862Z,82.21
2017-11-08T09:33:28.398Z,82.21
2017-11-08T09:34:38.882Z,82.65
2017-11-08T09:35:49.363Z,82.56
2017-11-08T09:36:59.833Z,82.21
2017-11-08T09:38:09.958Z,82.21
2017-11-08T09:39:20.402Z,82.41
2017-11-08T09:40:30.842Z,81.26
2017-11-08T09:41:41.115Z,81.36
2017-11-08T09:42:51.581Z,81.07
2017-11-08T09:44:01.717Z,81.84
2017-11-08T09:45:12.160Z,80.88
2017-11-08T09:46:22.815Z,80.98
2017-11-08T09:47:33.299Z,81.36
2017-11-08T09:48:43.766Z,81.26
2017-11-08T09:49:53.886Z,81.07
2017-11-08T09:51:04.555Z,80.98
2017-11-08T09:52:15.029Z,80.88
2017-11-08T09:53:25.499Z,81.07
2017-11-08T09:54:35.989Z,81.07
2017-11-08T09:55:46.755Z,81.26
2017-11-08T09:56:57.243Z,80.69
2017-11-08T09:58:07.688Z,80.83
2017-11-08T09:59:18.232Z,80.83
2017-11-08T10:00:28.715Z,80.01
2017-11-08T10:01:38.737Z,79.1
2017-11-08T10:02:49.204Z,78.43
2017-11-08T10:03:59.667Z,78.18
2017-11-08T10:05:09.781Z,77.45
2017-11-08T10:06:20.267Z,76.79
2017-11-08T10:07:30.577Z,75.78
2017-11-08T10:08:41.216Z,75.2
2017-11-08T10:09:51.986Z,74.66
2017-11-08T10:11:02.705Z,74.09
2017-11-08T10:12:12.858Z,73.61
2017-11-08T10:13:23.068Z,72.98
2017-11-08T10:14:33.655Z,73.08
2017-11-08T10:15:44.256Z,72.31
2017-11-08T10:16:54.770Z,71.03
2017-11-08T10:18:05.277Z,71.32
2017-11-08T10:19:15.191Z,71.13
2017-11-08T10:20:25.633Z,71.28
2017-11-08T10:21:36.090Z,71.19
2017-11-08T10:22:46.567Z,71.28
2017-11-08T10:23:56.716Z,71.82
2017-11-08T10:25:07.223Z,72.39
2017-11-08T10:26:17.878Z,72.11
2017-11-08T10:27:28.006Z,72.01
2017-11-08T10:28:38.478Z,72.26
2017-11-08T10:29:48.927Z,72.64
2017-11-08T10:30:59.496Z,72.74
2017-11-08T10:32:09.945Z,72.83
2017-11-08T10:33:20.412Z,73.08
2017-11-08T10:34:31.162Z,73.37
2017-11-08T10:35:41.630Z,74.1
2017-11-08T10:36:51.743Z,73.81
2017-11-08T10:38:02.333Z,74.29
2017-11-08T10:39:12.799Z,74.38
2017-11-08T10:40:23.245Z,74.38
2017-11-08T10:41:33.477Z,74.48
2017-11-08T10:42:43.488Z,74.96
2017-11-08T10:43:53.976Z,75.24
2017-11-08T10:45:04.056Z,75.4
2017-11-08T10:46:14.185Z,75.62
2017-11-08T10:47:24.226Z,75.72
2017-11-08T10:48:34.841Z,75.53
2017-11-08T10:49:44.969Z,76.2
2017-11-08T10:50:55.426Z,75.81
2017-11-08T10:52:05.563Z,75.62
2017-11-08T10:53:16.134Z,75.59
2017-11-08T10:54:26.597Z,75.53
2017-11-08T10:55:37.077Z,75.62
2017-11-08T10:56:47.297Z,75.68
2017-11-08T10:57:57.987Z,75.59
2017-11-08T10:59:08.472Z,75.96
2017-11-08T11:00:18.626Z,75.96
2017-11-08T11:01:29.100Z,75.62
2017-11-08T11:02:39.637Z,75.62
2017-11-08T11:03:49.756Z,75.91
2017-11-08T11:05:00.300Z,76.01
2017-11-08T11:06:10.741Z,75.91
2017-11-08T11:07:20.975Z,75.72
2017-11-08T11:08:31.455Z,75.53
2017-11-08T11:09:41.592Z,75.62
2017-11-08T11:10:51.732Z,75.81
2017-11-08T11:12:02.188Z,75.53
2017-11-08T11:13:12.664Z,75.24
2017-11-08T11:14:23.129Z,74.99
2017-11-08T11:15:33.602Z,74.9
2017-11-08T11:16:44.085Z,74.27
2017-11-08T11:17:54.213Z,74.37
2017-11-08T11:19:04.369Z,73.73
2017-11-08T11:20:14.537Z,73.16
2017-11-08T11:21:24.648Z,72.78
2017-11-08T11:22:34.491Z,72.62
2017-11-08T11:23:44.636Z,71.47
2017-11-08T11:24:55.112Z,71.76
2017-11-08T11:26:05.597Z,71.67
2017-11-08T11:27:15.861Z,71.95
2017-11-08T11:28:26.236Z,71.82
2017-11-08T11:29:35.606Z,71.63
2017-11-08T11:30:45.735Z,72.2
2017-11-08T11:31:55.871Z,72.78
2017-11-08T11:33:06.014Z,72.83
2017-11-08T11:34:16.186Z,72.93
2017-11-08T11:35:26.660Z,72.93
2017-11-08T11:36:36.753Z,72.8
2017-11-08T11:37:46.556Z,73.37
2017-11-08T11:38:56.706Z,73.66
2017-11-08T11:40:06.177Z,73.85
2017-11-08T11:41:16.752Z,73.94
2017-11-08T11:42:26.881Z,74.13
2017-11-08T11:43:37.030Z,74.29
2017-11-08T11:44:47.180Z,74.77
2017-11-08T11:45:56.902Z,74.29
2017-11-08T11:47:07.426Z,74.67
2017-11-08T11:48:17.576Z,74.48
2017-11-08T11:49:27.647Z,74.57
2017-11-08T11:50:38.102Z,75.05
2017-11-08T11:51:48.352Z,75.11
2017-11-08T11:52:58.505Z,75.62
2017-11-08T11:54:08.959Z,75.3
2017-11-08T11:55:19.573Z,76.16
2017-11-08T11:56:30.095Z,75.96
2017-11-08T11:57:40.098Z,76.06
2017-11-08T11:58:50.256Z,76.25
2017-11-08T12:00:00.737Z,76.54
2017-11-08T12:01:10.761Z,76.44
2017-11-08T12:02:21.257Z,76.92
2017-11-08T12:03:31.820Z,76.64
2017-11-08T12:04:41.966Z,77.2
2017-11-08T12:05:52.427Z,77.2
2017-11-08T12:07:02.132Z,77.78
2017-11-08T12:08:12.314Z,77.87
2017-11-08T12:09:22.125Z,77.97
2017-11-08T12:10:32.815Z,77.78
2017-11-08T12:11:43.003Z,77.69
2017-11-08T12:12:53.022Z,77.69
2017-11-08T12:14:03.555Z,77.87
2017-11-08T12:15:13.703Z,77.3
2017-11-08T12:16:24.228Z,77.11
2017-11-08T12:17:34.367Z,77.49
2017-11-08T12:18:44.119Z,76.92
2017-11-08T12:19:54.601Z,77.25
2017-11-08T12:21:05.061Z,76.96
2017-11-08T12:22:15.574Z,76.67
2017-11-08T12:23:26.172Z,76.96
2017-11-08T12:24:36.121Z,76.96
2017-11-08T12:25:46.262Z,76.64
2017-11-08T12:26:56.851Z,76.86
2017-11-08T12:28:07.001Z,76.73
2017-11-08T12:29:17.165Z,76.92
2017-11-08T12:30:27.664Z,76.92
2017-11-08T12:31:38.370Z,76.96
2017-11-08T12:32:48.826Z,76.86
2017-11-08T12:33:59.313Z,76.44
2017-11-08T12:35:10.064Z,76.48
2017-11-08T12:36:20.600Z,76.44
2017-11-08T12:37:30.807Z,76.82
2017-11-08T12:38:41.286Z,76.82
2017-11-08T12:39:51.768Z,76.64
2017-11-08T12:41:02.262Z,76.73
2017-11-08T12:42:12.724Z,77.01
2017-11-08T12:43:23.170Z,76.82
2017-11-08T12:44:33.670Z,77.11
2017-11-08T12:45:43.817Z,77.01
2017-11-08T12:46:54.281Z,77.53
2017-11-08T12:48:04.311Z,77.11
2017-11-08T12:49:14.620Z,76.82
2017-11-08T12:50:25.187Z,76.73
2017-11-08T12:51:35.435Z,77.11
2017-11-08T12:52:45.906Z,76.64
2017-11-08T12:53:56.367Z,76.92
2017-11-08T12:55:06.816Z,76.82
2017-11-08T12:56:17.283Z,76.73
2017-11-08T12:57:27.797Z,77.01
2017-11-08T12:58:37.496Z,77.01
2017-11-08T12:59:47.540Z,77.4
2017-11-08T13:00:58.033Z,77.4
2017-11-08T13:02:08.489Z,77.3
2017-11-08T13:03:19.103Z,77.49
2017-11-08T13:04:28.824Z,77.11
2017-11-08T13:05:39.310Z,77.3
2017-11-08T13:06:49.778Z,77.59
2017-11-08T13:07:59.910Z,78.16
2017-11-08T13:09:10.352Z,77.83
2017-11-08T13:10:20.987Z,78.06
2017-11-08T13:11:31.126Z,77.93
2017-11-08T13:12:41.613Z,77.97
2017-11-08T13:13:52.106Z,78.06
2017-11-08T13:15:02.262Z,78.16
2017-11-08T13:16:12.717Z,78.25
2017-11-08T13:17:22.856Z,78.06
2017-11-08T13:18:33.382Z,78.06
2017-11-08T13:19:43.828Z,78.16
2017-11-08T13:20:53.967Z,78.35
2017-11-08T13:22:04.458Z,78.06
2017-11-08T13:23:14.487Z,78.06
2017-11-08T13:24:24.730Z,78.16
2017-11-08T13:25:34.855Z,78.16
2017-11-08T13:26:44.792Z,78.25
2017-11-08T13:27:54.936Z,78.16
2017-11-08T13:29:05.087Z,77.97
2017-11-08T13:30:15.583Z,78.25
2017-11-08T13:31:26.040Z,78.25
2017-11-08T13:32:36.504Z,78.54
2017-11-08T13:33:46.878Z,78.44
2017-11-08T13:34:57.003Z,78.44
2017-11-08T13:36:07.494Z,78.54
2017-11-08T13:37:18.064Z,78.73
2017-11-08T13:38:28.199Z,78.35
2017-11-08T13:39:38.675Z,78.16
2017-11-08T13:40:48.794Z,78.25
2017-11-08T13:41:59.352Z,78.35
2017-11-08T13:43:09.814Z,78.35
2017-11-08T13:44:20.341Z,78.73
2017-11-08T13:45:30.494Z,78.73
2017-11-08T13:46:40.520Z,78.54
2017-11-08T13:47:51.060Z,78.44
2017-11-08T13:49:01.546Z,78.64
2017-11-08T13:50:12.006Z,78.54
2017-11-08T13:51:22.168Z,78.44
2017-11-08T13:52:32.237Z,78.92
2017-11-08T13:53:42.923Z,78.25
2017-11-08T13:54:53.384Z,78.92
2017-11-08T13:56:03.878Z,78.64
2017-11-08T13:57:14.346Z,79.11
2017-11-08T13:58:24.945Z,78.92
2017-11-08T13:59:35.439Z,79.02
2017-11-08T14:00:45.602Z,79.02
2017-11-08T14:01:55.298Z,78.64
2017-11-08T14:03:05.340Z,79.21
2017-11-08T14:04:15.156Z,79.02
2017-11-08T14:05:24.530Z,78.69
2017-11-08T14:06:35.632Z,78.88
2017-11-08T14:07:46.311Z,79.55
2017-11-08T14:08:56.830Z,79.55
2017-11-08T14:10:07.361Z,79.46
2017-11-08T14:11:17.873Z,79.55
2017-11-08T14:12:28.543Z,79.46
2017-11-08T14:13:39.013Z,79.46
2017-11-08T14:14:49.482Z,79.64
2017-11-08T14:15:59.937Z,79.55
2017-11-08T14:17:10.025Z,79.64
2017-11-08T14:18:20.750Z,79.46
2017-11-08T14:19:30.928Z,79.46
2017-11-08T14:20:40.810Z,78.98
2017-11-08T14:21:50.616Z,78.98
2017-11-08T14:23:00.680Z,78.88
2017-11-08T14:24:11.314Z,78.98
2017-11-08T14:25:21.054Z,78.98
2017-11-08T14:26:31.486Z,78.88
2017-11-08T14:27:42.000Z,79.36
2017-11-08T14:28:52.623Z,79.17
2017-11-08T14:30:02.871Z,79.74
2017-11-08T14:31:13.095Z,79.55
2017-11-08T14:32:23.766Z,79.64
2017-11-08T14:33:33.915Z,79.36
2017-11-08T14:34:44.045Z,79.36
2017-11-08T14:35:54.507Z,79.46
2017-11-08T14:37:04.663Z,79.36
2017-11-08T14:38:15.143Z,79.55
2017-11-08T14:39:25.861Z,78.98
2017-11-08T14:40:36.002Z,78.98
2017-11-08T14:41:46.687Z,79.55
2017-11-08T14:42:56.832Z,79.46
2017-11-08T14:44:06.963Z,79.36
2017-11-08T14:45:17.466Z,79.55
2017-11-08T14:46:27.966Z,78.88
2017-11-08T14:47:38.493Z,79.27
2017-11-08T14:48:48.986Z,79.64
2017-11-08T14:49:59.549Z,79.46
2017-11-08T14:51:09.675Z,79.07
2017-11-08T14:52:19.718Z,79.55
2017-11-08T14:53:30.240Z,79.46
2017-11-08T14:54:40.745Z,79.93
2017-11-08T14:55:51.203Z,79.93
2017-11-08T14:57:01.367Z,80.12
2017-11-08T14:58:11.082Z,79.93
2017-11-08T14:59:20.898Z,80.41
2017-11-08T15:00:31.399Z,80.79
2017-11-08T15:01:41.885Z,80.88
2017-11-08T15:02:52.401Z,80.79
2017-11-08T15:04:02.855Z,80.65
2017-11-08T15:05:13.517Z,80.6
2017-11-08T15:06:23.684Z,81.17
2017-11-08T15:07:34.227Z,81.07
2017-11-08T15:08:44.685Z,81.17
2017-11-08T15:09:55.200Z,81.26
2017-11-08T15:11:05.726Z,81.65
2017-11-08T15:12:15.794Z,81.93
2017-11-08T15:13:26.263Z,81.65
2017-11-08T15:14:36.713Z,81.65
2017-11-08T15:15:46.524Z,81.84
2017-11-08T15:16:56.932Z,82.5
2017-11-08T15:18:06.958Z,82.46
2017-11-08T15:19:17.470Z,82.21
2017-11-08T15:20:27.652Z,82.37
2017-11-08T15:21:38.141Z,82.56
2017-11-08T15:22:48.735Z,82.56
2017-11-08T15:23:59.226Z,82.69